createdAt,value
2017-01-14T00:00:38.112Z,89.59
2017-01-14T00:01:38.067Z,89.59
2017-01-14T00:02:38.025Z,89.31
2017-01-14T00:03:37.987Z,89.5
2017-01-14T00:04:37.956Z,89.5
2017-01-14T00:05:37.897Z,89.78
2017-01-14T00:06:37.470Z,89.12
2017-01-14T00:07:37.814Z,88.74
2017-01-14T00:08:37.770Z,89.22
2017-01-14T00:09:37.734Z,89.22
2017-01-14T00:10:37.685Z,89.22
2017-01-14T00:11:37.642Z,88.84
2017-01-14T00:12:37.705Z,89.4
2017-01-14T00:13:37.554Z,89.4
2017-01-14T00:14:37.528Z,89.4
2017-01-14T00:15:37.478Z,89.31
2017-01-14T00:16:37.212Z,89.12
2017-01-14T00:17:37.386Z,89.59
2017-01-14T00:18:37.338Z,89.87
2017-01-14T00:19:37.295Z,89.4
2017-01-14T00:20:36.869Z,89.59
2017-01-14T00:21:37.216Z,89.4
2017-01-14T00:22:37.168Z,89.12
2017-01-14T00:23:36.741Z,88.36
2017-01-14T00:24:37.190Z,89.03
2017-01-14T00:25:37.043Z,89.69
2017-01-14T00:26:36.994Z,89.69
2017-01-14T00:27:36.570Z,90.35
2017-01-14T00:28:36.915Z,89.97
2017-01-14T00:29:36.869Z,90.25
2017-01-14T00:30:36.825Z,90.63
2017-01-14T00:31:36.773Z,90.44
2017-01-14T00:32:36.741Z,91.2
2017-01-14T00:33:36.694Z,91.1
2017-01-14T00:34:36.264Z,91.29
2017-01-14T00:35:36.609Z,91.39
2017-01-14T00:36:36.567Z,91.67
2017-01-14T00:37:36.140Z,91.77
2017-01-14T00:38:36.480Z,91.77
2017-01-14T00:39:36.051Z,92.14
2017-01-14T00:40:36.402Z,92.24
2017-01-14T00:41:35.967Z,92.33
2017-01-14T00:42:36.308Z,92.43
2017-01-14T00:43:35.884Z,92.52
2017-01-14T00:44:36.250Z,92.9
2017-01-14T00:45:36.178Z,92.99
2017-01-14T00:46:36.138Z,93.09
2017-01-14T00:47:35.707Z,93.28
2017-01-14T00:48:36.291Z,93.66
2017-01-14T00:49:36.008Z,93.56
2017-01-14T00:50:35.968Z,93.84
2017-01-14T00:51:35.922Z,93.66
2017-01-14T00:52:35.878Z,93.94
2017-01-14T00:53:35.452Z,93.75
2017-01-14T00:54:35.795Z,94.03
2017-01-14T00:55:35.750Z,94.32
2017-01-14T00:56:35.396Z,94.03
2017-01-14T00:57:35.663Z,94.13
2017-01-14T00:58:35.622Z,94.03
2017-01-14T00:59:35.196Z,94.13
2017-01-14T01:00:35.151Z,94.41
2017-01-14T01:01:35.494Z,94.32
2017-01-14T01:02:35.062Z,94.03
2017-01-14T01:03:35.408Z,94.32
2017-01-14T01:04:35.363Z,94.79
2017-01-14T01:05:34.940Z,94.98
2017-01-14T01:06:35.277Z,94.89
2017-01-14T01:07:34.853Z,94.79
2017-01-14T01:08:35.196Z,94.79
2017-01-14T01:09:34.766Z,95.36
2017-01-14T01:10:35.239Z,95.36
2017-01-14T01:11:35.065Z,95.45
2017-01-14T01:12:35.021Z,95.07
2017-01-14T01:13:35.228Z,95.54
2017-01-14T01:14:35.357Z,95.36
2017-01-14T01:15:34.508Z,95.36
2017-01-14T01:16:34.852Z,95.36
2017-01-14T01:17:34.811Z,95.64
2017-01-14T01:18:34.766Z,96.02
2017-01-14T01:19:34.727Z,95.92
2017-01-14T01:20:34.294Z,95.92
2017-01-14T01:21:34.636Z,96.11
2017-01-14T01:22:34.591Z,95.73
2017-01-14T01:23:34.549Z,96.11
2017-01-14T01:24:34.505Z,95.83
2017-01-14T01:25:34.465Z,96.49
2017-01-14T01:26:34.038Z,96.4
2017-01-14T01:27:33.997Z,96.11
2017-01-14T01:28:34.453Z,96.4
2017-01-14T01:29:33.913Z,96.49
2017-01-14T01:30:34.248Z,96.11
2017-01-14T01:31:34.206Z,96.49
2017-01-14T01:32:34.373Z,96.4
2017-01-14T01:33:33.737Z,96.59
2017-01-14T01:34:34.276Z,96.3
2017-01-14T01:35:34.036Z,96.59
2017-01-14T01:36:34.450Z,96.49
2017-01-14T01:37:33.568Z,96.4
2017-01-14T01:38:33.935Z,96.59
2017-01-14T01:39:33.479Z,96.68
2017-01-14T01:40:33.927Z,96.96
2017-01-14T01:41:33.782Z,96.78
2017-01-14T01:42:33.351Z,96.78
2017-01-14T01:43:33.309Z,96.78
2017-01-14T01:44:33.652Z,96.59
2017-01-14T01:45:33.607Z,96.59
2017-01-14T01:46:33.564Z,96.59
2017-01-14T01:47:33.524Z,96.59
2017-01-14T01:48:33.478Z,96.68
2017-01-14T01:49:33.438Z,96.59
2017-01-14T01:50:33.393Z,96.59
2017-01-14T01:51:32.966Z,96.68
2017-01-14T01:52:33.330Z,96.68
2017-01-14T01:53:32.886Z,96.68
2017-01-14T01:54:33.334Z,96.68
2017-01-14T01:55:32.793Z,96.96
2017-01-14T01:56:33.238Z,96.78
2017-01-14T01:57:33.144Z,96.96
2017-01-14T01:58:33.050Z,96.96
2017-01-14T01:59:33.031Z,96.96
2017-01-14T02:00:32.965Z,97.15
2017-01-14T02:01:32.921Z,97.34
2017-01-14T02:02:32.498Z,97.53
2017-01-14T02:03:32.455Z,97.34
2017-01-14T02:04:32.791Z,97.25
2017-01-14T02:05:32.752Z,96.96
2017-01-14T02:06:32.336Z,97.06
2017-01-14T02:07:32.283Z,96.96
2017-01-14T02:08:32.621Z,97.53
2017-01-14T02:09:32.591Z,96.96
2017-01-14T02:10:32.152Z,97.44
2017-01-14T02:11:32.492Z,97.25
2017-01-14T02:12:32.451Z,97.06
2017-01-14T02:13:32.413Z,97.15
2017-01-14T02:14:31.984Z,97.25
2017-01-14T02:15:31.941Z,97.44
2017-01-14T02:16:32.281Z,97.44
2017-01-14T02:17:32.236Z,96.68
2017-01-14T02:18:32.199Z,97.34
2017-01-14T02:19:32.212Z,97.53
2017-01-14T02:20:32.136Z,97.34
2017-01-14T02:21:32.114Z,97.15
2017-01-14T02:22:32.025Z,97.34
2017-01-14T02:23:31.979Z,97.34
2017-01-14T02:24:31.937Z,97.34
2017-01-14T02:25:31.511Z,97.25
2017-01-14T02:26:31.853Z,97.34
2017-01-14T02:27:31.811Z,97.25
2017-01-14T02:28:31.817Z,97.34
2017-01-14T02:29:31.728Z,97.53
2017-01-14T02:30:31.733Z,96.96
2017-01-14T02:31:31.255Z,97.15
2017-01-14T02:32:31.599Z,96.78
2017-01-14T02:33:31.589Z,96.96
2017-01-14T02:34:31.535Z,96.87
2017-01-14T02:35:31.579Z,97.15
2017-01-14T02:36:31.424Z,96.87
2017-01-14T02:37:31.000Z,96.96
2017-01-14T02:38:30.957Z,97.25
2017-01-14T02:39:31.295Z,97.63
2017-01-14T02:40:31.255Z,97.34
2017-01-14T02:41:31.215Z,97.34
2017-01-14T02:42:31.172Z,97.25
2017-01-14T02:43:31.267Z,97.44
2017-01-14T02:44:31.383Z,97.44
2017-01-14T02:45:30.656Z,98
2017-01-14T02:46:30.994Z,97.72
2017-01-14T02:47:30.956Z,97.53
2017-01-14T02:48:30.529Z,98.1
2017-01-14T02:49:30.484Z,97.72
2017-01-14T02:50:30.447Z,97.53
2017-01-14T02:51:31.215Z,97.91
2017-01-14T02:52:30.744Z,98.19
2017-01-14T02:53:30.914Z,98
2017-01-14T02:54:30.657Z,98
2017-01-14T02:55:30.617Z,97.72
2017-01-14T02:56:30.572Z,98.47
2017-01-14T02:57:30.143Z,98.28
2017-01-14T02:58:31.144Z,98.47
2017-01-14T02:59:30.445Z,98.19
2017-01-14T03:00:30.475Z,97.91
2017-01-14T03:01:30.357Z,97.91
2017-01-14T03:02:29.932Z,98.19
2017-01-14T03:03:30.274Z,98.19
2017-01-14T03:04:30.230Z,98.19
2017-01-14T03:05:30.192Z,98.05
2017-01-14T03:06:30.148Z,98
2017-01-14T03:07:30.107Z,98.33
2017-01-14T03:08:30.065Z,98.71
2017-01-14T03:09:30.021Z,98
2017-01-14T03:10:30.026Z,98.62
2017-01-14T03:11:29.548Z,98.71
2017-01-14T03:12:29.508Z,98.66
2017-01-14T03:13:29.915Z,98.47
2017-01-14T03:14:29.900Z,98.33
2017-01-14T03:15:29.764Z,98.71
2017-01-14T03:16:29.721Z,98.62
2017-01-14T03:17:29.691Z,98.38
2017-01-14T03:18:29.755Z,98.71
2017-01-14T03:19:29.224Z,98.33
2017-01-14T03:20:29.553Z,98.43
2017-01-14T03:21:29.509Z,98.43
2017-01-14T03:22:29.098Z,98.24
2017-01-14T03:23:29.425Z,98.43
2017-01-14T03:24:29.380Z,98.43
2017-01-14T03:25:29.338Z,98.71
2017-01-14T03:26:29.312Z,98.62
2017-01-14T03:27:29.252Z,98.81
2017-01-14T03:28:29.212Z,98.43
2017-01-14T03:29:29.218Z,98.14
2017-01-14T03:30:29.227Z,98.62
2017-01-14T03:31:28.704Z,98.24
2017-01-14T03:32:29.040Z,98.43
2017-01-14T03:33:28.998Z,98.71
2017-01-14T03:34:28.960Z,98.62
2017-01-14T03:35:28.915Z,98.33
2017-01-14T03:36:28.868Z,98.81
2017-01-14T03:37:28.828Z,98.33
2017-01-14T03:38:28.785Z,98.52
2017-01-14T03:39:28.359Z,99.09
2017-01-14T03:40:28.708Z,99.19
2017-01-14T03:41:28.281Z,98.71
2017-01-14T03:42:28.615Z,98.62
2017-01-14T03:43:28.569Z,99
2017-01-14T03:44:28.554Z,97.96
2017-01-14T03:45:28.489Z,99
2017-01-14T03:46:28.446Z,98.9
2017-01-14T03:47:28.408Z,98.33
2017-01-14T03:48:28.382Z,98.43
2017-01-14T03:49:28.317Z,98.62
2017-01-14T03:50:28.273Z,98.71
2017-01-14T03:51:28.230Z,98.52
2017-01-14T03:52:28.188Z,99
2017-01-14T03:53:27.765Z,98.43
2017-01-14T03:54:28.108Z,99
2017-01-14T03:55:28.059Z,98.71
2017-01-14T03:56:28.023Z,98.81
2017-01-14T03:57:27.979Z,98.71
2017-01-14T03:58:27.550Z,99
2017-01-14T03:59:27.894Z,98.81
2017-01-14T04:00:27.855Z,99
2017-01-14T04:01:27.827Z,99.19
2017-01-14T04:02:27.500Z,99.19
2017-01-14T04:03:27.721Z,99.38
2017-01-14T04:04:27.294Z,99.09
2017-01-14T04:05:27.638Z,99.09
2017-01-14T04:06:27.208Z,99.47
2017-01-14T04:08:27.509Z,99
2017-01-14T04:09:27.471Z,99.19
2017-01-14T04:10:27.432Z,99
2017-01-14T04:11:27.386Z,99
2017-01-14T04:12:27.338Z,99.19
2017-01-14T04:13:27.295Z,99.19
2017-01-14T04:14:26.868Z,99.19
2017-01-14T04:15:27.214Z,98.71
2017-01-14T04:16:27.168Z,99.28
2017-01-14T04:17:26.741Z,99.09
2017-01-14T04:18:27.089Z,99.28
2017-01-14T04:19:27.043Z,99.47
2017-01-14T04:20:26.998Z,99.47
2017-01-14T04:21:26.957Z,99.38
2017-01-14T04:22:26.913Z,99
2017-01-14T04:23:27.005Z,98.9
2017-01-14T04:24:26.830Z,99.28
2017-01-14T04:25:26.790Z,99.28
2017-01-14T04:26:26.745Z,99.28
2017-01-14T04:27:26.850Z,99
2017-01-14T04:28:26.663Z,99.28
2017-01-14T04:29:26.619Z,99.47
2017-01-14T04:30:26.574Z,99.47
2017-01-14T04:31:26.530Z,99.09
2017-01-14T04:32:26.492Z,99
2017-01-14T04:33:26.068Z,99.28
2017-01-14T04:34:26.432Z,99.19
2017-01-14T04:35:26.368Z,98.9
2017-01-14T04:36:26.333Z,98.9
2017-01-14T04:37:26.736Z,98.81
2017-01-14T04:38:26.233Z,99.28
2017-01-14T04:39:26.196Z,99.09
2017-01-14T04:40:26.150Z,99
2017-01-14T04:41:26.110Z,99.09
2017-01-14T04:42:26.101Z,99.19
2017-01-14T04:43:26.025Z,99.28
2017-01-14T04:44:25.983Z,99.09
2017-01-14T04:45:25.938Z,99
2017-01-14T04:46:25.515Z,99.28
2017-01-14T04:47:25.855Z,99.28
2017-01-14T04:48:25.810Z,99.09
2017-01-14T04:49:25.765Z,98.9
2017-01-14T04:50:25.342Z,99.19
2017-01-14T04:51:25.697Z,99.09
2017-01-14T04:52:26.033Z,98.9
2017-01-14T04:53:25.596Z,99.09
2017-01-14T04:55:25.565Z,99
2017-01-14T04:56:25.084Z,99.09
2017-01-14T04:57:25.436Z,98.81
2017-01-14T04:58:25.392Z,99.09
2017-01-14T04:59:25.348Z,99.09
2017-01-14T05:00:25.307Z,98.62
2017-01-14T05:01:25.258Z,98.62
2017-01-14T05:02:25.216Z,98.71
2017-01-14T05:03:25.172Z,99
2017-01-14T05:04:25.132Z,98.52
2017-01-14T05:05:25.091Z,98.71
2017-01-14T05:06:25.085Z,98.62
2017-01-14T05:07:24.619Z,98.52
2017-01-14T05:08:24.961Z,98.43
2017-01-14T05:09:24.919Z,98.71
2017-01-14T05:10:24.876Z,97.86
2017-01-14T05:11:24.837Z,98.24
2017-01-14T05:12:24.796Z,98.24
2017-01-14T05:13:24.750Z,98.43
2017-01-14T05:14:24.708Z,98.14
2017-01-14T05:15:24.667Z,98.14
2017-01-14T05:16:24.630Z,98.14
2017-01-14T05:17:24.728Z,97.96
2017-01-14T05:18:24.539Z,99.09
2017-01-14T05:19:24.494Z,98.52
2017-01-14T05:20:24.071Z,98.52
2017-01-14T05:21:24.411Z,98.52
2017-01-14T05:22:24.374Z,98.71
2017-01-14T05:23:24.493Z,98.33
2017-01-14T05:24:23.901Z,98.52
2017-01-14T05:25:24.242Z,98.71
2017-01-14T05:26:24.200Z,98.33
2017-01-14T05:27:24.154Z,98.33
2017-01-14T05:28:23.767Z,98.71
2017-01-14T05:29:23.686Z,98.71
2017-01-14T05:30:24.099Z,98.43
2017-01-14T05:31:23.989Z,98.33
2017-01-14T05:32:23.948Z,98.14
2017-01-14T05:33:23.904Z,98.52
2017-01-14T05:34:23.861Z,98.33
2017-01-14T05:35:23.811Z,98.52
2017-01-14T05:36:23.802Z,98.62
2017-01-14T05:37:23.349Z,98.24
2017-01-14T05:38:23.690Z,98.62
2017-01-14T05:39:23.750Z,98.52
2017-01-14T05:40:23.607Z,98.14
2017-01-14T05:41:23.487Z,97.96
2017-01-14T05:42:23.520Z,98.14
2017-01-14T05:43:23.091Z,97.86
2017-01-14T05:44:23.055Z,97.77
2017-01-14T05:45:23.011Z,97.77
2017-01-14T05:46:23.355Z,97.86
2017-01-14T05:47:22.925Z,98.24
2017-01-14T05:48:23.268Z,97.49
2017-01-14T05:49:22.839Z,97.58
2017-01-14T05:50:22.898Z,97.58
2017-01-14T05:51:23.140Z,97.58
2017-01-14T05:52:23.099Z,97.58
2017-01-14T05:53:23.057Z,97.58
2017-01-14T05:54:23.017Z,97.58
2017-01-14T05:55:22.976Z,97.3
2017-01-14T05:56:22.929Z,97.86
2017-01-14T05:57:22.886Z,97.86
2017-01-14T05:58:22.846Z,97.77
2017-01-14T05:59:22.804Z,97.49
2017-01-14T06:00:22.759Z,97.3
2017-01-14T06:01:22.719Z,97.39
2017-01-14T06:02:22.682Z,97.39
2017-01-14T06:03:22.244Z,97.2
2017-01-14T06:04:22.203Z,97.39
2017-01-14T06:05:22.559Z,97.2
2017-01-14T06:06:22.505Z,97.3
2017-01-14T06:07:22.461Z,97.11
2017-01-14T06:08:22.598Z,97.39
2017-01-14T06:09:22.379Z,97.11
2017-01-14T06:10:22.338Z,97.3
2017-01-14T06:11:22.296Z,97.3
2017-01-14T06:12:22.248Z,97.2
2017-01-14T06:13:22.209Z,97.2
2017-01-14T06:14:22.163Z,97.3
2017-01-14T06:15:22.156Z,97.2
2017-01-14T06:16:22.082Z,97.3
2017-01-14T06:17:22.041Z,97.39
2017-01-14T06:18:21.609Z,97.3
2017-01-14T06:19:21.571Z,97.39
2017-01-14T06:20:21.524Z,97.39
2017-01-14T06:21:21.867Z,97.3
2017-01-14T06:22:21.827Z,97.49
2017-01-14T06:23:21.402Z,97.11
2017-01-14T06:24:21.357Z,97.11
2017-01-14T06:25:21.698Z,97.01
2017-01-14T06:26:21.780Z,97.01
2017-01-14T06:27:21.233Z,96.83
2017-01-14T06:28:21.573Z,97.11
2017-01-14T06:29:21.144Z,97.01
2017-01-14T06:30:21.491Z,96.64
2017-01-14T06:31:21.059Z,96.54
2017-01-14T06:32:35.918Z,96.54
2017-01-14T06:33:21.358Z,96.45
2017-01-14T06:34:21.316Z,96.45
2017-01-14T06:35:20.892Z,96.64
2017-01-14T06:36:21.236Z,96.73
2017-01-14T06:37:21.189Z,96.54
2017-01-14T06:38:20.764Z,96.45
2017-01-14T06:39:21.200Z,96.83
2017-01-14T06:40:21.068Z,96.45
2017-01-14T06:41:21.021Z,96.92
2017-01-14T06:42:20.589Z,96.64
2017-01-14T06:43:20.548Z,96.54
2017-01-14T06:44:20.928Z,96.83
2017-01-14T06:45:20.465Z,96.83
2017-01-14T06:46:20.806Z,96.54
2017-01-14T06:47:20.767Z,96.26
2017-01-14T06:48:20.336Z,96.54
2017-01-14T06:49:20.684Z,96.54
2017-01-14T06:50:20.251Z,96.83
2017-01-14T06:51:20.598Z,96.35
2017-01-14T06:52:20.551Z,96.45
2017-01-14T06:53:20.125Z,96.54
2017-01-14T06:54:20.467Z,96.45
2017-01-14T06:55:20.428Z,96.26
2017-01-14T06:56:20.383Z,96.73
2017-01-14T06:57:20.340Z,96.45
2017-01-14T06:58:20.301Z,96.35
2017-01-14T06:59:20.272Z,96.26
2017-01-14T07:00:20.216Z,96.26
2017-01-14T07:01:20.172Z,96.45
2017-01-14T07:02:19.744Z,96.45
2017-01-14T07:03:20.088Z,96.35
2017-01-14T07:04:20.042Z,96.54
2017-01-14T07:05:20.102Z,96.54
2017-01-14T07:06:19.962Z,96.64
2017-01-14T07:07:19.918Z,96.64
2017-01-14T07:08:19.875Z,96.83
2017-01-14T07:09:19.833Z,96.83
2017-01-14T07:10:19.792Z,96.54
2017-01-14T07:11:19.751Z,96.83
2017-01-14T07:12:19.708Z,96.35
2017-01-14T07:13:19.665Z,96.73
2017-01-14T07:14:19.624Z,96.83
2017-01-14T07:15:19.194Z,96.64
2017-01-14T07:16:19.542Z,96.64
2017-01-14T07:17:19.493Z,96.64
2017-01-14T07:18:19.451Z,96.83
2017-01-14T07:19:19.505Z,96.83
2017-01-14T07:20:19.365Z,96.45
2017-01-14T07:21:19.440Z,96.92
2017-01-14T07:22:19.285Z,96.83
2017-01-14T07:23:19.239Z,96.73
2017-01-14T07:24:18.819Z,96.45
2017-01-14T07:25:19.160Z,96.83
2017-01-14T07:26:19.219Z,96.64
2017-01-14T07:27:18.686Z,96.45
2017-01-14T07:28:18.755Z,96.54
2017-01-14T07:29:18.987Z,96.64
2017-01-14T07:30:18.947Z,96.45
2017-01-14T07:31:18.903Z,96.54
2017-01-14T07:32:18.866Z,96.64
2017-01-14T07:33:18.817Z,96.5
2017-01-14T07:34:18.784Z,96.31
2017-01-14T07:35:18.736Z,96.4
2017-01-14T07:36:18.306Z,96.02
2017-01-14T07:37:18.655Z,96.02
2017-01-14T07:38:18.605Z,96.4
2017-01-14T07:39:18.565Z,96.5
2017-01-14T07:40:18.532Z,96.02
2017-01-14T07:41:18.563Z,96.02
2017-01-14T07:42:18.435Z,96.02
2017-01-14T07:43:18.011Z,95.93
2017-01-14T07:44:18.357Z,96.21
2017-01-14T07:45:18.311Z,96.31
2017-01-14T07:46:18.297Z,96.31
2017-01-14T07:47:18.228Z,96.4
2017-01-14T07:48:18.183Z,95.93
2017-01-14T07:49:18.141Z,96.02
2017-01-14T07:50:18.104Z,96.02
2017-01-14T07:51:18.060Z,95.93
2017-01-14T07:52:17.628Z,95.93
2017-01-14T07:53:17.969Z,95.55
2017-01-14T07:54:17.932Z,95.64
2017-01-14T07:55:17.888Z,95.55
2017-01-14T07:56:17.846Z,95.26
2017-01-14T07:57:17.804Z,95.45
2017-01-14T07:58:17.764Z,95.55
2017-01-14T07:59:17.723Z,95.36
2017-01-14T08:00:17.676Z,95.45
2017-01-14T08:01:17.737Z,95.36
2017-01-14T08:02:17.672Z,95.17
2017-01-14T08:03:17.548Z,95.26
2017-01-14T08:04:17.513Z,95.45
2017-01-14T08:05:17.468Z,95.26
2017-01-14T08:06:17.420Z,95.45
2017-01-14T08:07:16.995Z,95.45
2017-01-14T08:08:17.339Z,95.55
2017-01-14T08:09:17.301Z,95.45
2017-01-14T08:10:17.345Z,94.6
2017-01-14T08:11:17.210Z,94.98
2017-01-14T08:12:17.172Z,95.07
2017-01-14T08:13:17.131Z,95.17
2017-01-14T08:14:17.085Z,95.17
2017-01-14T08:15:17.048Z,94.98
2017-01-14T08:16:16.618Z,94.98
2017-01-14T08:17:16.962Z,94.6
2017-01-14T08:18:16.918Z,94.6
2017-01-14T08:19:16.872Z,94.7
2017-01-14T08:20:16.833Z,94.23
2017-01-14T08:21:16.792Z,94.42
2017-01-14T08:22:16.365Z,94.51
2017-01-14T08:23:16.708Z,94.42
2017-01-14T08:24:16.671Z,94.23
2017-01-14T08:25:16.628Z,94.13
2017-01-14T08:26:16.584Z,94.23
2017-01-14T08:27:16.540Z,93.94
2017-01-14T08:28:16.496Z,93.75
2017-01-14T08:29:16.455Z,93.66
2017-01-14T08:30:16.410Z,93.94
2017-01-14T08:31:15.988Z,93.66
2017-01-14T08:32:16.329Z,93.66
2017-01-14T08:33:16.289Z,93.37
2017-01-14T08:34:15.866Z,93.09
2017-01-14T08:35:16.304Z,92.9
2017-01-14T08:36:16.247Z,92.9
2017-01-14T08:37:16.125Z,92.71
2017-01-14T08:38:15.791Z,92.61
2017-01-14T08:39:15.647Z,92.33
2017-01-14T08:40:15.604Z,92.43
2017-01-14T08:41:15.954Z,92.33
2017-01-14T08:42:15.911Z,92.24
2017-01-14T08:43:15.866Z,92.33
2017-01-14T08:44:15.876Z,91.86
2017-01-14T08:45:15.835Z,91.96
2017-01-14T08:46:15.741Z,91.67
2017-01-14T08:47:15.699Z,91.2
2017-01-14T08:48:15.660Z,91.1
2017-01-14T08:49:15.625Z,90.91
2017-01-14T08:50:15.576Z,90.72
2017-01-14T08:51:15.586Z,90.44
2017-01-14T08:52:15.490Z,90.34
2017-01-14T08:53:15.457Z,89.78
2017-01-14T08:54:15.406Z,90.16
2017-01-14T08:55:15.364Z,90.06
2017-01-14T08:56:14.940Z,89.87
2017-01-14T08:57:15.281Z,90.16
2017-01-14T08:58:14.855Z,89.5
2017-01-14T08:59:15.199Z,89.97
2017-01-14T09:00:15.155Z,89.4
2017-01-14T09:01:15.117Z,89.59
2017-01-14T09:02:14.685Z,90.06
2017-01-14T09:03:15.029Z,90.06
2017-01-14T09:04:14.990Z,90.06
2017-01-14T09:05:14.946Z,90.06
2017-01-14T09:06:14.901Z,89.35
2017-01-14T09:07:14.493Z,89.73
2017-01-14T09:08:14.821Z,89.73
2017-01-14T09:09:14.393Z,89.31
2017-01-14T09:10:14.352Z,89.16
2017-01-14T09:11:14.695Z,88.97
2017-01-14T09:12:14.651Z,88.87
2017-01-14T09:13:14.224Z,88.49
2017-01-14T09:14:14.185Z,88.49
2017-01-14T09:15:14.145Z,88.31
2017-01-14T09:16:14.485Z,88.4
2017-01-14T09:17:14.442Z,88.4
2017-01-14T09:18:14.589Z,88.12
2017-01-14T09:19:14.449Z,87.74
2017-01-14T09:20:14.317Z,87.93
2017-01-14T09:21:13.901Z,87.65
2017-01-14T09:22:13.847Z,87.93
2017-01-14T09:23:13.809Z,87.17
2017-01-14T09:24:14.150Z,87.36
2017-01-14T09:25:14.108Z,87.27
2017-01-14T09:26:14.067Z,86.98
2017-01-14T09:27:13.639Z,87.17
2017-01-14T09:28:13.982Z,87.17
2017-01-14T09:29:13.943Z,87.55
2017-01-14T09:30:13.895Z,87.36
2017-01-14T09:31:13.471Z,87.36
2017-01-14T09:32:13.815Z,87.93
2017-01-14T09:33:13.778Z,88.02
2017-01-14T09:34:13.346Z,87.93
2017-01-14T09:35:13.692Z,87.93
2017-01-14T09:36:13.652Z,87.84
2017-01-14T09:37:13.613Z,88.12
2017-01-14T09:38:13.185Z,88.02
2017-01-14T09:39:13.525Z,88.4
2017-01-14T09:40:13.485Z,88.12
2017-01-14T09:41:13.054Z,88.31
2017-01-14T09:42:13.405Z,88.49
2017-01-14T09:43:13.361Z,89.06
2017-01-14T09:44:12.935Z,88.49
2017-01-14T09:45:13.274Z,88.49
2017-01-14T09:46:13.262Z,89.16
2017-01-14T09:47:12.809Z,88.68
2017-01-14T09:48:13.157Z,89.25
2017-01-14T09:49:13.110Z,89.16
2017-01-14T09:50:13.070Z,89.06
2017-01-14T09:51:13.032Z,88.78
2017-01-14T09:52:12.983Z,89.06
2017-01-14T09:53:12.946Z,89.35
2017-01-14T09:54:12.567Z,89.25
2017-01-14T09:55:12.878Z,89.92
2017-01-14T09:56:12.820Z,89.44
2017-01-14T09:57:12.777Z,89.16
2017-01-14T09:58:12.352Z,90.2
2017-01-14T09:59:12.698Z,90.3
2017-01-14T10:00:12.655Z,90.11
2017-01-14T10:01:12.230Z,89.44
2017-01-14T10:02:12.571Z,89.92
2017-01-14T10:03:12.145Z,89.73
2017-01-14T10:04:12.104Z,89.82
2017-01-14T10:05:12.521Z,89.73
2017-01-14T10:06:12.606Z,89.54
2017-01-14T10:07:12.362Z,89.54
2017-01-14T10:08:11.933Z,88.97
2017-01-14T10:09:11.898Z,88.87
2017-01-14T10:10:12.242Z,89.16
2017-01-14T10:11:12.211Z,89.63
2017-01-14T10:12:12.162Z,89.73
2017-01-14T10:13:12.115Z,89.35
2017-01-14T10:14:12.087Z,89.44
2017-01-14T10:15:12.032Z,90.11
2017-01-14T10:16:11.991Z,89.92
2017-01-14T10:17:11.566Z,89.82
2017-01-14T10:18:11.910Z,89.82
2017-01-14T10:19:11.484Z,89.73
2017-01-14T10:20:11.824Z,90.01
2017-01-14T10:21:11.402Z,89.92
2017-01-14T10:22:11.748Z,90.2
2017-01-14T10:23:11.708Z,89.92
2017-01-14T10:24:11.276Z,90.11
2017-01-14T10:25:11.236Z,90.11
2017-01-14T10:26:11.578Z,90.01
2017-01-14T10:27:11.151Z,90.2
2017-01-14T10:28:11.548Z,90.01
2017-01-14T10:29:11.453Z,90.2
2017-01-14T10:30:11.420Z,90.2
2017-01-14T10:31:11.379Z,90.2
2017-01-14T10:32:11.337Z,90.48
2017-01-14T10:33:11.293Z,90.01
2017-01-14T10:34:11.247Z,89.92
2017-01-14T10:35:11.211Z,90.15
2017-01-14T10:36:11.166Z,89.73
2017-01-14T10:37:10.786Z,89.58
2017-01-14T10:38:11.082Z,88.92
2017-01-14T10:39:11.043Z,88.45
2017-01-14T10:40:11.081Z,88.82
2017-01-14T10:41:10.958Z,88.73
2017-01-14T10:42:10.917Z,88.92
2017-01-14T10:43:10.875Z,88.82
2017-01-14T10:44:10.453Z,88.92
2017-01-14T10:45:10.793Z,88.45
2017-01-14T10:46:10.366Z,88.92
2017-01-14T10:47:10.329Z,88.54
2017-01-14T10:48:10.285Z,88.45
2017-01-14T10:49:10.630Z,87.98
2017-01-14T10:50:10.590Z,87.78
2017-01-14T10:51:10.553Z,87.78
2017-01-14T10:52:10.123Z,87.88
2017-01-14T10:53:10.465Z,87.78
2017-01-14T10:54:10.424Z,87.31
2017-01-14T10:55:10.391Z,87.02
2017-01-14T10:56:10.343Z,86.83
2017-01-14T10:57:10.307Z,86.46
2017-01-14T10:58:10.261Z,86.83
2017-01-14T10:59:10.220Z,86.55
2017-01-14T11:00:09.802Z,86.18
2017-01-14T11:01:10.138Z,86.08
2017-01-14T11:02:10.103Z,86.36
2017-01-14T11:03:09.672Z,85.99
2017-01-14T11:04:10.024Z,86.18
2017-01-14T11:05:09.975Z,86.18
2017-01-14T11:06:09.932Z,86.27
2017-01-14T11:07:09.897Z,85.99
2017-01-14T11:08:09.852Z,85.89
2017-01-14T11:09:09.425Z,85.99
2017-01-14T11:10:09.773Z,86.08
2017-01-14T11:11:09.734Z,86.18
2017-01-14T11:12:09.690Z,85.7
2017-01-14T11:13:09.646Z,85.51
2017-01-14T11:14:09.609Z,85.51
2017-01-14T11:15:09.564Z,85.23
2017-01-14T11:16:09.523Z,85.89
2017-01-14T11:17:09.490Z,85.89
2017-01-14T11:18:09.444Z,84.94
2017-01-14T11:19:09.400Z,85.23
2017-01-14T11:20:09.367Z,85.04
2017-01-14T11:21:08.933Z,85.23
2017-01-14T11:22:08.894Z,85.04
2017-01-14T11:23:09.241Z,84.94
2017-01-14T11:24:08.812Z,85.23
2017-01-14T11:25:09.165Z,84.47
2017-01-14T11:26:09.118Z,84.38
2017-01-14T11:27:09.075Z,84.66
2017-01-14T11:28:09.038Z,84.19
2017-01-14T11:29:08.612Z,84.47
2017-01-14T11:30:08.956Z,84.28
2017-01-14T11:31:08.919Z,84.28
2017-01-14T11:32:08.871Z,84.47
2017-01-14T11:33:08.832Z,84.47
2017-01-14T11:34:08.797Z,84.47
2017-01-14T11:35:08.763Z,84.47
2017-01-14T11:36:08.707Z,84.38
2017-01-14T11:37:08.669Z,85.23
2017-01-14T11:38:08.630Z,84.47
2017-01-14T11:39:08.585Z,84.47
2017-01-14T11:40:08.162Z,84.38
2017-01-14T11:41:08.507Z,84.28
2017-01-14T11:42:08.463Z,84.19
2017-01-14T11:43:08.419Z,84.38
2017-01-14T11:44:07.993Z,84.19
2017-01-14T11:45:08.335Z,83.62
2017-01-14T11:46:08.300Z,84
2017-01-14T11:47:08.259Z,84.28
2017-01-14T11:48:08.218Z,83.14
2017-01-14T11:49:08.176Z,83.71
2017-01-14T11:50:08.136Z,83.43
2017-01-14T11:51:08.091Z,83.62
2017-01-14T11:52:08.053Z,83.9
2017-01-14T11:53:08.013Z,83.81
2017-01-14T11:54:07.973Z,83.81
2017-01-14T11:55:07.549Z,83.71
2017-01-14T11:56:07.523Z,83.81
2017-01-14T11:57:07.851Z,83.71
2017-01-14T11:58:07.808Z,83.71
2017-01-14T11:59:07.764Z,83.14
2017-01-14T12:00:07.727Z,83.43
2017-01-14T12:01:07.687Z,83.62
2017-01-14T12:02:07.642Z,83.9
2017-01-14T12:03:07.606Z,83.33
2017-01-14T12:04:07.560Z,82.86
2017-01-14T12:05:07.520Z,83.05
2017-01-14T12:06:07.482Z,82.81
2017-01-14T12:07:07.440Z,82.43
2017-01-14T12:08:07.400Z,81.67
2017-01-14T12:09:07.358Z,81.01
2017-01-14T12:10:06.932Z,80.63
2017-01-14T12:11:06.893Z,81.1
2017-01-14T12:12:07.236Z,81.86
2017-01-14T12:13:06.818Z,81.95
2017-01-14T12:14:07.158Z,81.29
2017-01-14T12:15:07.118Z,81.01
2017-01-14T12:16:07.075Z,80.72
2017-01-14T12:17:06.651Z,80.06
2017-01-14T12:18:07.023Z,79.49
2017-01-14T12:19:06.568Z,79.87
2017-01-14T12:20:06.909Z,79.68
2017-01-14T12:21:06.873Z,79.68
2017-01-14T12:22:06.832Z,79.58
2017-01-14T12:23:06.793Z,80.06
2017-01-14T12:24:06.893Z,79.68
2017-01-14T12:25:06.711Z,79.77
2017-01-14T12:26:06.285Z,79.77
2017-01-14T12:27:06.244Z,79.77
2017-01-14T12:28:06.205Z,79.39
2017-01-14T12:29:06.548Z,79.39
2017-01-14T12:30:06.507Z,79.11
2017-01-14T12:31:06.553Z,78.73
2017-01-14T12:32:06.437Z,78.35
2017-01-14T12:33:06.048Z,78.64
2017-01-14T12:34:06.353Z,78.26
2017-01-14T12:35:06.307Z,78.16
2017-01-14T12:36:06.272Z,78.16
2017-01-14T12:37:06.230Z,78.07
2017-01-14T12:38:06.192Z,78.07
2017-01-14T12:39:06.145Z,77.69
2017-01-14T12:40:06.109Z,77.59
2017-01-14T12:41:06.064Z,77.78
2017-01-14T12:42:05.645Z,77.59
2017-01-14T12:43:05.991Z,77.69
2017-01-14T12:44:05.560Z,78.45
2017-01-14T12:45:05.520Z,78.45
2017-01-14T12:46:05.863Z,78.54
2017-01-14T12:47:05.826Z,78.16
2017-01-14T12:48:05.788Z,78.45
2017-01-14T12:49:05.744Z,78.83
2017-01-14T12:50:05.317Z,78.73
2017-01-14T12:51:05.667Z,78.73
2017-01-14T12:52:05.235Z,78.64
2017-01-14T12:53:05.614Z,78.73
2017-01-14T12:54:05.547Z,78.64
2017-01-14T12:55:05.507Z,78.69
2017-01-14T12:56:05.080Z,78.59
2017-01-14T12:57:05.420Z,78.59
2017-01-14T12:58:05.381Z,79.17